Time;durP1;ratioP1;P1;durP2;ratioP2;P2;SDS_P1;SDS_P2;PMS_P1;PMS_P2;Temp;Humidity;BMP_temperature;BMP_pressure;BME280_temperature;BME280_humidity;BME280_pressure;Samples;Min_cycle;Max_cycle;Signal;HPM_P1;HPM_P2
2023/08/16 00:01:18;;;;;;;7.83;7.43;;;23.00;37.20;;;;;;5157805;27;20543;-55
2023/08/16 00:03:43;;;;;;;8.23;7.77;;;23.00;37.30;;;;;;5157873;27;20643;-55
2023/08/16 00:06:14;;;;;;;7.83;7.53;;;23.00;37.40;;;;;;5157772;27;20172;-56
2023/08/16 00:08:40;;;;;;;8.20;7.80;;;23.00;37.40;;;;;;5157477;27;20183;-57
2023/08/16 00:11:07;;;;;;;9.10;8.50;;;23.00;37.40;;;;;;5157436;27;20465;-56
2023/08/16 00:13:33;;;;;;;8.93;8.53;;;22.90;37.70;;;;;;5157639;27;20420;-55
2023/08/16 00:16:01;;;;;;;9.17;8.57;;;22.90;37.80;;;;;;5157554;27;20425;-56
2023/08/16 00:18:27;;;;;;;7.40;7.10;;;22.90;37.70;;;;;;5157226;27;20401;-58
2023/08/16 00:20:53;;;;;;;8.57;8.10;;;22.90;37.70;;;;;;5157580;27;20460;-56
2023/08/16 00:23:18;;;;;;;8.40;8.00;;;22.90;37.70;;;;;;5157517;27;20823;-56
2023/08/16 00:25:44;;;;;;;7.80;7.40;;;23.00;37.80;;;;;;5157380;27;20176;-56
2023/08/16 00:28:10;;;;;;;8.50;8.00;;;23.00;37.80;;;;;;5157169;27;20175;-55
2023/08/16 00:30:35;;;;;;;8.60;8.20;;;23.00;38.00;;;;;;5157077;27;20613;-56
2023/08/16 00:33:01;;;;;;;9.03;8.50;;;22.90;38.40;;;;;;5157312;27;20176;-56
2023/08/16 00:35:26;;;;;;;8.53;8.13;;;22.90;39.10;;;;;;5157245;27;20528;-54
2023/08/16 00:37:52;;;;;;;8.70;8.07;;;22.90;39.20;;;;;;5157185;27;20180;-54
2023/08/16 00:40:18;;;;;;;8.70;8.30;;;22.90;39.50;;;;;;5156980;27;20653;-56
2023/08/16 00:42:43;;;;;;;8.60;8.20;;;22.90;39.80;;;;;;5157005;27;20522;-55
2023/08/16 00:45:09;;;;;;;8.47;8.07;;;22.90;41.20;;;;;;5157028;27;20180;-56
2023/08/16 00:47:35;;;;;;;9.63;9.13;;;22.80;42.00;;;;;;5156867;27;20179;-54
2023/08/16 00:50:01;;;;;;;8.83;8.20;;;22.80;42.80;;;;;;5156571;27;20451;-56
2023/08/16 00:52:27;;;;;;;8.67;8.20;;;22.80;42.70;;;;;;5156779;27;20424;-55
2023/08/16 00:54:55;;;;;;;9.27;8.80;;;22.80;42.30;;;;;;5156286;27;20759;-54
2023/08/16 00:57:21;;;;;;;8.60;8.07;;;22.70;42.20;;;;;;5175375;27;20477;-54
2023/08/16 00:59:46;;;;;;;9.30;8.70;;;22.80;42.30;;;;;;5156546;27;20505;-57
2023/08/16 01:02:14;;;;;;;7.77;7.33;;;22.70;42.70;;;;;;5156601;27;20188;-55
2023/08/16 01:04:42;;;;;;;9.07;8.57;;;22.70;44.60;;;;;;5175373;27;20593;-55
2023/08/16 01:07:07;;;;;;;8.60;8.10;;;22.60;44.90;;;;;;5156649;27;20409;-55
2023/08/16 01:09:33;;;;;;;8.63;8.23;;;22.60;44.20;;;;;;5156347;27;20850;-55
2023/08/16 01:12:11;;;;;;;8.57;8.17;;;22.60;43.50;;;;;;5156415;27;20199;-56
2023/08/16 01:14:50;;;;;;;8.90;8.40;;;22.60;43.30;;;;;;5156400;27;20428;-56
2023/08/16 01:17:16;;;;;;;8.80;8.30;;;22.60;43.20;;;;;;5156380;27;20769;-56
2023/08/16 01:19:42;;;;;;;8.70;8.30;;;22.60;42.60;;;;;;5156168;27;20409;-56
2023/08/16 01:22:18;;;;;;;8.47;8.17;;;22.60;43.40;;;;;;5156240;27;20183;-56
2023/08/16 01:25:26;;;;;;;8.33;7.93;;;22.50;44.40;;;;;;5156303;27;20495;-56
2023/08/16 01:27:53;;;;;;;8.10;7.70;;;22.50;44.00;;;;;;5121956;27;20420;-56
2023/08/16 01:30:20;;;;;;;9.00;8.43;;;22.50;43.60;;;;;;5155988;27;20564;-56
2023/08/16 01:32:47;;;;;;;8.93;8.33;;;22.50;43.60;;;;;;5156118;27;20543;-56
2023/08/16 01:35:14;;;;;;;8.87;8.37;;;22.50;43.40;;;;;;5156098;27;20780;-56
2023/08/16 01:37:40;;;;;;;8.13;7.63;;;22.60;43.50;;;;;;5156026;27;20420;-56
2023/08/16 01:40:08;;;;;;;8.20;7.77;;;22.60;43.60;;;;;;5155922;27;20905;-56
2023/08/16 01:42:41;;;;;;;8.60;8.10;;;22.60;43.50;;;;;;5155959;27;20413;-56
2023/08/16 01:45:08;;;;;;;8.30;7.90;;;22.60;43.40;;;;;;5156053;27;20428;-55
2023/08/16 01:47:35;;;;;;;8.33;7.83;;;22.60;43.50;;;;;;5155797;27;20421;-56
2023/08/16 01:50:01;;;;;;;9.07;8.43;;;22.60;43.50;;;;;;5155582;27;20471;-56
2023/08/16 01:52:28;;;;;;;8.33;7.93;;;22.60;43.50;;;;;;5155957;27;20466;-56
2023/08/16 01:54:54;;;;;;;8.50;7.60;;;22.60;44.00;;;;;;5155796;27;20417;-55
2023/08/16 01:57:20;;;;;;;9.30;8.60;;;22.50;43.60;;;;;;5155648;27;20787;-55
2023/08/16 01:59:46;;;;;;;7.83;7.53;;;22.50;43.90;;;;;;5155674;27;20176;-55
2023/08/16 02:02:12;;;;;;;8.40;8.00;;;22.50;44.00;;;;;;5155789;27;20528;-55
2023/08/16 02:04:37;;;;;;;9.30;8.50;;;22.50;43.90;;;;;;5155718;27;20452;-56
2023/08/16 02:07:03;;;;;;;8.40;8.00;;;22.50;44.10;;;;;;5157773;27;20172;-57
2023/08/16 02:09:29;;;;;;;8.87;8.37;;;22.50;44.20;;;;;;5159961;27;20647;-56
2023/08/16 02:11:54;;;;;;;8.23;7.83;;;22.50;43.90;;;;;;5159980;27;20207;-55
2023/08/16 02:14:20;;;;;;;8.93;8.33;;;22.50;43.90;;;;;;5160135;27;20538;-54
2023/08/16 02:16:46;;;;;;;8.37;7.97;;;22.50;44.00;;;;;;5178703;27;20175;-56
2023/08/16 02:19:11;;;;;;;9.13;8.60;;;22.50;44.10;;;;;;5159663;27;20619;-55
2023/08/16 02:21:37;;;;;;;9.07;8.43;;;22.50;44.60;;;;;;5142568;27;20205;-55
2023/08/16 02:24:03;;;;;;;8.47;7.97;;;22.30;45.20;;;;;;5159688;27;20183;-55
2023/08/16 02:26:28;;;;;;;8.53;8.03;;;22.20;46.10;;;;;;5159916;27;20180;-55
2023/08/16 02:28:54;;;;;;;8.50;8.00;;;22.10;46.80;;;;;;5159700;27;20912;-57
2023/08/16 02:31:20;;;;;;;8.47;7.97;;;22.00;47.40;;;;;;5158494;27;20223;-55
2023/08/16 02:33:45;;;;;;;9.60;9.00;;;21.90;48.00;;;;;;5157750;27;20168;-55
2023/08/16 02:36:11;;;;;;;8.70;8.20;;;21.80;48.20;;;;;;5157717;27;20256;-54
2023/08/16 02:38:36;;;;;;;8.63;8.13;;;21.70;48.60;;;;;;5157554;27;20232;-56
2023/08/16 02:41:02;;;;;;;8.83;8.33;;;21.70;48.80;;;;;;5157621;27;20172;-55
2023/08/16 02:43:28;;;;;;;8.90;8.40;;;21.80;49.10;;;;;;5157416;27;20655;-56
2023/08/16 02:45:54;;;;;;;8.97;8.27;;;21.70;49.00;;;;;;5157697;27;20180;-56
2023/08/16 02:48:19;;;;;;;8.80;8.30;;;21.70;48.90;;;;;;5159159;27;20180;-56
2023/08/16 02:50:45;;;;;;;8.77;7.97;;;21.70;49.00;;;;;;5159087;27;20214;-55
2023/08/16 02:53:11;;;;;;;8.23;7.80;;;21.70;48.90;;;;;;5177951;27;20225;-55
2023/08/16 02:55:36;;;;;;;8.80;8.30;;;21.70;49.10;;;;;;5159320;27;20405;-56
2023/08/16 02:58:02;;;;;;;8.60;8.20;;;21.70;49.40;;;;;;5158901;27;20197;-55
2023/08/16 03:00:29;;;;;;;8.73;8.23;;;21.60;49.40;;;;;;5158913;27;20678;-54
2023/08/16 03:02:55;;;;;;;8.57;7.97;;;21.60;49.40;;;;;;5158991;27;20172;-55
2023/08/16 03:05:21;;;;;;;8.17;7.73;;;21.60;49.40;;;;;;5158849;27;20417;-55
2023/08/16 03:07:47;;;;;;;8.60;8.00;;;21.60;49.60;;;;;;5158790;27;20176;-55
2023/08/16 03:10:12;;;;;;;9.20;8.50;;;21.60;49.60;;;;;;5158707;27;20207;-55
2023/08/16 03:12:38;;;;;;;8.10;7.70;;;21.70;49.10;;;;;;5158923;27;20168;-55
2023/08/16 03:15:04;;;;;;;8.60;8.10;;;21.80;48.70;;;;;;5158923;27;20172;-56
2023/08/16 03:17:30;;;;;;;8.93;8.33;;;21.90;48.10;;;;;;5158614;27;20635;-56
2023/08/16 03:19:55;;;;;;;8.93;8.53;;;21.90;47.20;;;;;;5157866;27;20419;-56
2023/08/16 03:22:21;;;;;;;9.97;9.27;;;22.00;47.00;;;;;;5158611;27;20317;-56
2023/08/16 03:24:47;;;;;;;9.13;8.63;;;22.10;46.60;;;;;;5158714;27;20195;-56
2023/08/16 03:27:13;;;;;;;9.17;8.47;;;22.10;46.10;;;;;;5158584;27;20186;-56
2023/08/16 03:29:39;;;;;;;9.33;8.83;;;22.10;46.00;;;;;;5158224;27;20423;-55
2023/08/16 03:32:04;;;;;;;9.30;8.70;;;22.10;45.80;;;;;;5158469;27;20448;-55
2023/08/16 03:34:30;;;;;;;8.53;8.13;;;22.10;45.60;;;;;;5158396;27;20172;-56
2023/08/16 03:36:57;;;;;;;9.03;8.53;;;22.10;45.30;;;;;;5158516;27;20571;-55
2023/08/16 03:39:22;;;;;;;8.97;8.57;;;22.10;45.40;;;;;;5158013;27;20176;-54
2023/08/16 03:41:48;;;;;;;8.83;8.43;;;22.00;45.40;;;;;;5158412;27;20523;-56
2023/08/16 03:44:14;;;;;;;8.70;8.23;;;22.00;45.30;;;;;;5158129;27;20203;-54
2023/08/16 03:46:39;;;;;;;9.27;8.70;;;22.00;45.10;;;;;;5158167;27;20186;-56
2023/08/16 03:49:05;;;;;;;8.40;7.90;;;22.10;45.30;;;;;;5157894;27;20172;-56
2023/08/16 03:51:31;;;;;;;8.30;7.90;;;22.00;45.20;;;;;;5158025;27;20562;-56
2023/08/16 03:53:57;;;;;;;8.40;8.00;;;22.00;45.10;;;;;;5157998;27;20517;-57
2023/08/16 03:56:22;;;;;;;8.97;8.47;;;22.00;45.10;;;;;;5157888;27;20460;-56
2023/08/16 03:58:48;;;;;;;9.67;9.07;;;22.00;45.00;;;;;;5157791;27;20176;-56
2023/08/16 04:01:14;;;;;;;9.20;8.50;;;22.00;45.20;;;;;;5158126;27;20180;-54
2023/08/16 04:03:39;;;;;;;9.13;8.63;;;22.00;45.00;;;;;;5157906;27;20172;-55
2023/08/16 04:06:11;;;;;;;9.20;8.80;;;22.00;44.90;;;;;;5157117;27;20175;-57
2023/08/16 04:08:40;;;;;;;8.80;8.40;;;22.00;44.70;;;;;;5136989;27;20179;-59
2023/08/16 04:11:06;;;;;;;8.90;8.50;;;22.00;44.20;;;;;;5137035;27;20547;-59
2023/08/16 04:13:32;;;;;;;9.77;9.37;;;22.00;44.10;;;;;;5137006;27;20886;-58
2023/08/16 04:15:58;;;;;;;9.43;8.93;;;21.90;44.20;;;;;;5137128;27;20173;-59
2023/08/16 04:18:25;;;;;;;10.50;10.10;;;21.80;44.20;;;;;;5136502;27;20915;-59
2023/08/16 04:20:50;;;;;;;10.53;9.90;;;21.80;44.30;;;;;;5155470;27;20200;-59
2023/08/16 04:23:21;;;;;;;9.90;9.47;;;21.70;44.60;;;;;;5136717;27;20498;-60
2023/08/16 04:25:47;;;;;;;10.70;10.10;;;21.60;45.30;;;;;;5136902;27;20184;-60
2023/08/16 04:28:13;;;;;;;9.70;9.20;;;21.50;45.60;;;;;;5136666;27;20414;-60
2023/08/16 04:30:38;;;;;;;8.83;8.43;;;21.40;46.10;;;;;;5135716;27;20204;-60
2023/08/16 04:33:04;;;;;;;10.67;10.13;;;21.40;46.10;;;;;;5136814;27;20180;-59
2023/08/16 04:35:29;;;;;;;9.40;9.00;;;21.40;45.90;;;;;;5155413;27;20230;-58
2023/08/16 04:37:55;;;;;;;9.30;8.90;;;21.40;45.90;;;;;;5136409;27;20180;-59
2023/08/16 04:40:21;;;;;;;10.57;9.93;;;21.40;46.00;;;;;;5136668;27;20226;-59
2023/08/16 04:42:46;;;;;;;10.10;9.60;;;21.50;45.90;;;;;;5136728;27;20263;-59
2023/08/16 04:45:12;;;;;;;9.30;8.80;;;21.50;45.60;;;;;;5136205;27;20180;-59
2023/08/16 04:47:38;;;;;;;10.17;9.57;;;21.60;45.20;;;;;;5136490;27;20176;-59
2023/08/16 04:50:06;;;;;;;9.93;9.33;;;21.70;45.30;;;;;;5135964;27;20196;-59
2023/08/16 04:52:33;;;;;;;9.43;9.00;;;21.70;45.10;;;;;;5136388;27;20172;-60
2023/08/16 04:55:01;;;;;;;10.20;9.60;;;21.70;44.80;;;;;;5136194;27;20410;-60
2023/08/16 04:57:27;;;;;;;9.40;8.80;;;21.80;44.80;;;;;;5136212;27;20425;-59
2023/08/16 04:59:52;;;;;;;9.63;9.17;;;21.80;44.50;;;;;;5136061;27;20414;-59
2023/08/16 05:02:18;;;;;;;9.73;9.13;;;21.70;44.80;;;;;;5154983;27;20648;-59
2023/08/16 05:04:44;;;;;;;10.47;9.87;;;21.80;44.90;;;;;;5136388;27;20172;-59
2023/08/16 05:07:09;;;;;;;11.47;10.97;;;21.80;44.80;;;;;;5136103;27;20646;-55
2023/08/16 05:09:36;;;;;;;11.00;10.40;;;21.90;44.40;;;;;;5136034;27;20179;-55
2023/08/16 05:12:02;;;;;;;11.03;10.47;;;21.90;44.20;;;;;;5136017;27;20252;-59
2023/08/16 05:14:28;;;;;;;11.97;11.37;;;21.80;44.20;;;;;;5135737;27;20410;-59
2023/08/16 05:16:53;;;;;;;11.00;10.50;;;21.80;44.70;;;;;;5135974;27;20402;-58
2023/08/16 05:19:19;;;;;;;12.07;11.27;;;21.70;44.90;;;;;;5135606;27;20204;-59
2023/08/16 05:21:45;;;;;;;13.50;12.50;;;21.70;45.40;;;;;;5135827;27;20200;-55
2023/08/16 05:24:10;;;;;;;13.80;12.80;;;21.70;45.60;;;;;;5135665;27;20643;-55
2023/08/16 05:26:36;;;;;;;14.00;12.80;;;21.70;45.60;;;;;;5135773;27;20624;-55
2023/08/16 05:29:01;;;;;;;12.93;12.13;;;21.60;46.00;;;;;;5154230;27;20180;-54
2023/08/16 05:31:27;;;;;;;13.33;12.53;;;21.60;46.20;;;;;;5135736;27;20614;-55
2023/08/16 05:33:53;;;;;;;14.10;13.10;;;21.60;46.10;;;;;;5135755;27;20301;-60
2023/08/16 05:36:18;;;;;;;13.40;12.67;;;21.60;46.40;;;;;;5135635;27;20628;-54
2023/08/16 05:38:44;;;;;;;13.70;12.77;;;21.70;46.70;;;;;;5135496;27;20200;-56
2023/08/16 05:41:10;;;;;;;13.57;12.77;;;21.70;46.40;;;;;;5135498;27;20542;-55
2023/08/16 05:43:35;;;;;;;12.97;12.17;;;21.70;46.30;;;;;;5135637;27;20183;-55
2023/08/16 05:46:02;;;;;;;13.43;12.73;;;21.80;46.00;;;;;;5154061;27;20539;-55
2023/08/16 05:48:28;;;;;;;12.53;11.83;;;21.80;45.70;;;;;;5135328;27;20185;-54
2023/08/16 05:50:53;;;;;;;13.47;12.27;;;21.80;45.60;;;;;;5135271;27;20454;-55
2023/08/16 05:53:20;;;;;;;12.63;11.77;;;21.80;45.50;;;;;;5135630;27;20513;-56
2023/08/16 05:55:46;;;;;;;12.00;11.40;;;21.90;45.50;;;;;;5135592;27;20441;-55
2023/08/16 05:58:11;;;;;;;11.70;11.00;;;21.90;45.20;;;;;;5135220;27;20233;-58
2023/08/16 06:00:37;;;;;;;10.97;10.47;;;22.00;45.10;;;;;;5135504;27;20216;-57
2023/08/16 06:03:04;;;;;;;12.20;11.53;;;22.00;45.30;;;;;;5135360;27;20225;-57
2023/08/16 06:05:29;;;;;;;13.10;12.07;;;22.00;44.70;;;;;;5135010;27;20461;-58
2023/08/16 06:07:56;;;;;;;13.03;12.07;;;22.10;44.60;;;;;;5134811;27;20917;-59
2023/08/16 06:10:22;;;;;;;12.63;11.93;;;22.10;44.60;;;;;;5134741;27;20208;-58
2023/08/16 06:12:48;;;;;;;12.27;11.43;;;22.10;44.30;;;;;;5135069;27;20463;-58
2023/08/16 06:15:14;;;;;;;16.00;12.67;;;22.20;44.50;;;;;;5134778;27;20247;-58
2023/08/16 06:17:40;;;;;;;13.27;12.07;;;22.20;44.10;;;;;;5134898;27;20592;-59
2023/08/16 06:20:07;;;;;;;12.87;11.77;;;22.20;43.70;;;;;;5134699;27;20834;-57
2023/08/16 06:22:37;;;;;;;12.67;11.97;;;22.20;43.70;;;;;;5134834;27;20923;-58
2023/08/16 06:25:07;;;;;;;11.47;10.63;;;22.30;43.80;;;;;;5134754;27;20518;-58
2023/08/16 06:27:33;;;;;;;15.57;10.67;;;22.30;44.10;;;;;;5153773;27;20519;-58
2023/08/16 06:29:59;;;;;;;23.67;12.23;;;22.30;43.60;;;;;;5134309;27;20442;-60
2023/08/16 06:32:25;;;;;;;11.77;10.97;;;22.40;43.10;;;;;;5132703;27;20414;-61
2023/08/16 06:34:50;;;;;;;12.30;11.20;;;22.40;43.40;;;;;;5132835;27;20462;-58
2023/08/16 06:37:16;;;;;;;11.77;11.00;;;22.50;43.60;;;;;;5133125;27;20201;-58
2023/08/16 06:39:42;;;;;;;11.73;11.13;;;22.50;44.00;;;;;;5132745;27;20176;-58
2023/08/16 06:42:09;;;;;;;17.13;12.20;;;22.50;43.30;;;;;;5132852;27;20190;-58
2023/08/16 06:44:35;;;;;;;22.80;12.30;;;22.50;43.50;;;;;;5151453;27;20546;-57
2023/08/16 06:47:01;;;;;;;11.27;10.77;;;22.50;43.40;;;;;;5116894;27;20414;-58
2023/08/16 06:49:27;;;;;;;12.47;11.77;;;22.50;42.70;;;;;;5134281;27;20441;-58
2023/08/16 06:51:52;;;;;;;15.73;11.47;;;22.50;43.10;;;;;;5134753;27;20548;-58
2023/08/16 06:54:18;;;;;;;12.70;11.57;;;22.50;43.00;;;;;;5136605;27;20562;-58
2023/08/16 06:56:43;;;;;;;12.23;11.40;;;22.50;42.90;;;;;;5138599;27;20284;-58
2023/08/16 06:59:09;;;;;;;35.40;14.23;;;22.50;42.50;;;;;;5138153;27;20214;-58
2023/08/16 07:01:35;;;;;;;15.67;12.87;;;22.50;42.60;;;;;;5138287;27;20181;-58
2023/08/16 07:04:01;;;;;;;13.07;12.27;;;22.60;42.90;;;;;;5138275;27;20187;-58
2023/08/16 07:06:26;;;;;;;13.07;12.07;;;22.60;42.60;;;;;;5137924;27;20211;-58
2023/08/16 07:08:53;;;;;;;13.17;11.90;;;22.70;42.70;;;;;;5131959;27;20195;-58
2023/08/16 07:11:19;;;;;;;13.17;12.30;;;22.70;42.70;;;;;;5135005;27;20304;-59
2023/08/16 07:13:44;;;;;;;12.87;12.27;;;22.80;42.70;;;;;;5137912;27;20412;-59
2023/08/16 07:16:10;;;;;;;12.57;11.80;;;22.80;41.90;;;;;;5137810;27;20410;-58
2023/08/16 07:18:36;;;;;;;13.03;12.33;;;22.90;41.80;;;;;;5137612;27;20181;-59
2023/08/16 07:21:01;;;;;;;13.43;12.63;;;22.90;41.40;;;;;;5137794;27;20181;-59
2023/08/16 07:23:27;;;;;;;13.53;12.57;;;23.00;40.80;;;;;;5137680;27;20181;-59
2023/08/16 07:25:56;;;;;;;13.70;12.90;;;23.00;40.40;;;;;;5133323;27;20516;-59
2023/08/16 07:28:26;;;;;;;14.40;13.30;;;23.00;40.10;;;;;;5134825;27;20180;-59
2023/08/16 07:30:55;;;;;;;14.33;13.07;;;23.10;39.70;;;;;;5137761;27;20461;-59
2023/08/16 07:33:21;;;;;;;13.20;12.50;;;23.10;39.30;;;;;;5137313;27;20406;-59
2023/08/16 07:35:50;;;;;;;16.23;15.10;;;23.10;39.70;;;;;;5137555;27;20424;-59
2023/08/16 07:38:16;;;;;;;13.63;12.93;;;23.20;39.40;;;;;;5137046;27;20485;-59
2023/08/16 07:40:48;;;;;;;16.83;13.10;;;23.30;38.90;;;;;;5137550;27;20422;-59
2023/08/16 07:43:14;;;;;;;14.10;12.87;;;23.40;39.00;;;;;;5137289;27;20418;-58
2023/08/16 07:45:40;;;;;;;15.07;14.07;;;23.40;38.30;;;;;;5137480;27;20902;-58
2023/08/16 07:48:06;;;;;;;15.50;14.37;;;23.40;38.10;;;;;;5137150;27;20448;-58
2023/08/16 07:50:31;;;;;;;15.57;14.53;;;23.50;37.30;;;;;;5137000;27;20208;-58
2023/08/16 07:52:57;;;;;;;14.83;14.03;;;23.60;37.10;;;;;;5137416;27;20537;-58
2023/08/16 07:55:29;;;;;;;14.13;13.47;;;23.70;37.60;;;;;;5137504;27;20454;-57
2023/08/16 07:57:54;;;;;;;14.60;13.90;;;23.70;36.60;;;;;;5137166;27;20191;-57
2023/08/16 08:00:20;;;;;;;15.30;14.10;;;23.80;35.60;;;;;;5137134;27;20529;-58
2023/08/16 08:02:45;;;;;;;14.67;13.90;;;23.80;35.40;;;;;;5137175;27;20697;-58
2023/08/16 08:05:11;;;;;;;15.50;14.70;;;23.90;35.20;;;;;;5136854;27;20189;-58
2023/08/16 08:07:37;;;;;;;16.67;15.27;;;24.00;35.50;;;;;;5136948;27;20173;-57
2023/08/16 08:10:02;;;;;;;15.87;15.07;;;24.10;35.60;;;;;;5136758;27;20183;-57
2023/08/16 08:12:29;;;;;;;15.20;13.83;;;24.20;35.40;;;;;;5136784;27;20305;-58
2023/08/16 08:14:57;;;;;;;15.30;14.00;;;24.30;35.20;;;;;;5136971;27;20169;-58
2023/08/16 08:17:23;;;;;;;15.17;14.17;;;24.30;34.80;;;;;;5136654;27;20773;-58
2023/08/16 08:19:48;;;;;;;14.70;13.90;;;24.40;34.70;;;;;;5136502;27;20406;-58
2023/08/16 08:22:14;;;;;;;14.47;13.57;;;24.40;34.50;;;;;;5136616;27;20204;-58
2023/08/16 08:24:40;;;;;;;13.97;13.30;;;24.40;34.60;;;;;;5136669;27;20280;-58
2023/08/16 08:27:05;;;;;;;13.77;13.07;;;24.50;35.00;;;;;;5136688;27;20654;-57
2023/08/16 08:29:31;;;;;;;14.50;13.60;;;24.60;35.00;;;;;;5136209;27;20667;-58
2023/08/16 08:31:56;;;;;;;15.40;14.20;;;24.60;34.20;;;;;;5136347;27;20603;-58
2023/08/16 08:34:24;;;;;;;14.80;13.90;;;24.70;34.70;;;;;;5136235;27;20220;-58
2023/08/16 08:36:49;;;;;;;15.70;14.80;;;24.70;34.00;;;;;;5136323;27;20169;-58
2023/08/16 08:39:19;;;;;;;14.77;13.97;;;24.70;34.30;;;;;;5136036;27;20795;-58
2023/08/16 08:41:48;;;;;;;15.07;14.17;;;24.70;34.00;;;;;;5136419;27;20629;-58
2023/08/16 08:44:19;;;;;;;15.13;14.20;;;24.90;34.20;;;;;;5136168;27;20418;-58
2023/08/16 08:46:46;;;;;;;16.33;15.03;;;24.90;34.20;;;;;;5136183;27;20467;-59
2023/08/16 08:49:14;;;;;;;14.47;13.33;;;24.90;34.20;;;;;;5135745;27;20425;-58
2023/08/16 08:51:41;;;;;;;15.27;14.30;;;25.00;34.20;;;;;;5136111;27;20468;-58
2023/08/16 08:54:07;;;;;;;14.83;14.10;;;25.00;34.10;;;;;;5135707;27;20414;-58
2023/08/16 08:56:33;;;;;;;16.00;14.80;;;25.10;33.60;;;;;;5135918;27;20467;-58
2023/08/16 08:59:01;;;;;;;15.83;14.90;;;25.20;33.20;;;;;;5135791;27;20410;-58
2023/08/16 09:01:27;;;;;;;15.60;14.80;;;25.20;33.00;;;;;;5135696;27;20441;-58
2023/08/16 09:03:56;;;;;;;14.03;13.33;;;25.30;32.20;;;;;;5135742;27;20414;-58
2023/08/16 09:06:22;;;;;;;15.23;14.20;;;25.30;32.90;;;;;;5135663;27;20418;-58
2023/08/16 09:08:48;;;;;;;14.60;13.80;;;25.30;33.20;;;;;;5135638;27;20421;-58
2023/08/16 09:11:15;;;;;;;14.87;13.87;;;25.40;32.40;;;;;;5135625;27;20212;-58
2023/08/16 09:13:40;;;;;;;17.03;15.40;;;25.50;32.00;;;;;;5135738;27;20414;-58
2023/08/16 09:16:06;;;;;;;13.53;12.77;;;25.50;31.70;;;;;;5135071;27;20773;-59
2023/08/16 09:18:31;;;;;;;13.90;13.10;;;25.60;31.70;;;;;;5135429;27;20181;-58
2023/08/16 09:21:00;;;;;;;18.43;17.07;;;25.60;31.30;;;;;;5135616;27;20184;-58
2023/08/16 09:23:27;;;;;;;14.30;13.40;;;25.70;31.30;;;;;;5135521;27;20180;-58
2023/08/16 09:25:53;;;;;;;13.93;13.23;;;25.80;30.90;;;;;;5154150;27;20410;-58
2023/08/16 09:28:19;;;;;;;15.87;14.77;;;25.80;30.20;;;;;;5135136;27;20416;-58
2023/08/16 09:30:45;;;;;;;14.63;13.60;;;25.90;31.60;;;;;;5135302;27;20204;-58
2023/08/16 09:33:14;;;;;;;14.60;13.30;;;26.00;30.60;;;;;;5135492;27;20495;-58
2023/08/16 09:35:51;;;;;;;14.27;13.47;;;26.10;30.00;;;;;;5135400;27;20190;-58
2023/08/16 09:38:20;;;;;;;13.43;12.83;;;26.10;29.70;;;;;;5135076;27;20466;-58
2023/08/16 09:40:52;;;;;;;14.80;13.53;;;26.20;29.70;;;;;;5135293;27;20425;-58
2023/08/16 09:43:19;;;;;;;15.33;14.20;;;26.20;29.60;;;;;;5135104;27;20459;-58
2023/08/16 09:45:52;;;;;;;15.27;14.20;;;26.20;29.60;;;;;;5135164;27;20508;-59
2023/08/16 09:48:23;;;;;;;15.47;14.30;;;26.20;29.50;;;;;;5134967;27;20417;-57
2023/08/16 09:50:49;;;;;;;15.23;14.33;;;26.30;29.40;;;;;;5134924;27;20553;-58
2023/08/16 09:53:15;;;;;;;15.87;15.00;;;26.30;29.70;;;;;;5135119;27;20512;-57
2023/08/16 09:55:42;;;;;;;14.30;13.50;;;26.20;29.90;;;;;;5135191;27;20173;-57
2023/08/16 09:58:08;;;;;;;15.80;14.80;;;26.20;30.10;;;;;;5134933;27;20414;-58
2023/08/16 10:00:34;;;;;;;15.90;14.87;;;26.20;30.30;;;;;;5134949;27;20417;-58
2023/08/16 10:03:01;;;;;;;15.20;14.33;;;26.30;30.10;;;;;;5134934;27;20521;-58
2023/08/16 10:05:27;;;;;;;15.27;14.27;;;26.40;29.90;;;;;;5134886;27;20794;-58
2023/08/16 10:07:59;;;;;;;14.00;13.30;;;26.50;29.30;;;;;;5134852;27;20418;-58
2023/08/16 10:10:25;;;;;;;15.33;14.13;;;26.60;28.10;;;;;;5134851;27;20470;-58
2023/08/16 10:12:53;;;;;;;14.30;13.60;;;26.80;28.70;;;;;;5135055;27;20452;-59
2023/08/16 10:15:19;;;;;;;14.13;13.30;;;27.00;28.20;;;;;;5134799;27;20410;-61
2023/08/16 10:17:50;;;;;;;15.60;14.70;;;27.10;27.30;;;;;;5134938;27;20470;-58
2023/08/16 10:20:24;;;;;;;13.90;13.07;;;27.20;27.20;;;;;;5134494;27;21078;-58
2023/08/16 10:23:01;;;;;;;13.83;13.10;;;27.20;27.40;;;;;;5134933;27;20806;-58
2023/08/16 10:25:56;;;;;;;15.20;14.10;;;27.00;27.40;;;;;;5134762;27;20426;-58
2023/08/16 10:28:25;;;;;;;14.43;13.67;;;27.10;27.40;;;;;;5134234;27;20420;-58
2023/08/16 10:30:55;;;;;;;15.90;15.00;;;27.20;27.80;;;;;;5157385;27;20469;-58
2023/08/16 10:33:33;;;;;;;15.27;14.07;;;27.20;26.60;;;;;;5138701;27;20436;-58
2023/08/16 10:36:01;;;;;;;14.50;13.70;;;27.20;26.70;;;;;;5138800;27;20416;-58
2023/08/16 10:38:37;;;;;;;15.80;14.80;;;27.10;27.00;;;;;;5138399;27;20404;-58
2023/08/16 10:41:09;;;;;;;16.97;15.97;;;27.10;27.30;;;;;;5138687;27;20405;-58
2023/08/16 10:43:35;;;;;;;16.23;14.90;;;27.20;27.60;;;;;;5138515;27;20771;-58
2023/08/16 10:46:01;;;;;;;15.83;14.97;;;27.20;27.50;;;;;;5138723;27;20737;-58
2023/08/16 10:48:33;;;;;;;15.13;14.23;;;27.20;27.00;;;;;;5138097;27;20267;-58
2023/08/16 10:51:02;;;;;;;15.50;14.60;;;27.30;27.20;;;;;;5138404;27;21040;-57
2023/08/16 10:53:28;;;;;;;16.20;15.00;;;27.30;27.00;;;;;;5157238;27;20896;-58
2023/08/16 10:55:57;;;;;;;15.80;15.00;;;27.40;26.90;;;;;;5138439;27;20414;-58
2023/08/16 10:58:24;;;;;;;16.03;14.50;;;27.50;26.80;;;;;;5156768;27;20204;-58
2023/08/16 11:00:58;;;;;;;14.93;14.23;;;27.60;26.40;;;;;;5153154;27;20419;-59
2023/08/16 11:03:37;;;;;;;14.70;14.00;;;27.60;26.40;;;;;;5155265;27;20454;-58
2023/08/16 11:06:08;;;;;;;16.03;15.03;;;27.70;26.40;;;;;;5155549;27;20820;-58
2023/08/16 11:08:35;;;;;;;16.90;16.10;;;27.70;26.30;;;;;;5155198;27;20790;-58
2023/08/16 11:11:04;;;;;;;16.47;15.57;;;27.80;25.80;;;;;;5155386;27;20465;-58
2023/08/16 11:13:30;;;;;;;15.30;14.50;;;27.70;25.30;;;;;;5155191;27;20421;-59
2023/08/16 11:15:59;;;;;;;17.07;15.80;;;27.80;25.20;;;;;;5155357;27;20406;-58
2023/08/16 11:18:32;;;;;;;16.03;15.10;;;27.80;25.00;;;;;;5154885;27;20593;-58
2023/08/16 11:20:59;;;;;;;15.97;15.03;;;27.90;25.10;;;;;;5155277;27;20859;-58
2023/08/16 11:23:45;;;;;;;16.33;15.30;;;27.90;25.00;;;;;;5155000;27;20429;-58
2023/08/16 11:26:11;;;;;;;17.13;15.93;;;28.40;23.30;;;;;;5154724;27;20424;-58
2023/08/16 11:28:39;;;;;;;16.90;16.10;;;28.60;23.10;;;;;;5154762;27;20497;-58
2023/08/16 11:31:06;;;;;;;16.53;15.63;;;28.60;23.10;;;;;;5155023;27;20540;-57
2023/08/16 11:33:33;;;;;;;17.00;15.90;;;28.50;23.50;;;;;;5154739;27;20768;-58
2023/08/16 11:36:05;;;;;;;15.23;14.50;;;28.50;23.10;;;;;;5154917;27;20417;-58
2023/08/16 11:38:32;;;;;;;17.23;16.10;;;28.40;23.40;;;;;;5154597;27;20459;-58
2023/08/16 11:40:58;;;;;;;17.97;16.57;;;28.30;23.20;;;;;;5154469;27;20421;-58
2023/08/16 11:43:28;;;;;;;15.83;15.03;;;28.40;23.50;;;;;;5154567;27;20901;-57
2023/08/16 11:45:55;;;;;;;15.37;14.40;;;28.70;22.30;;;;;;5154883;27;20428;-58
2023/08/16 11:48:21;;;;;;;17.40;16.20;;;28.80;23.00;;;;;;5154494;27;20422;-58
2023/08/16 11:50:48;;;;;;;17.77;16.63;;;28.70;22.60;;;;;;5154419;27;20518;-58
2023/08/16 11:53:18;;;;;;;16.47;15.63;;;28.60;22.60;;;;;;5154702;27;20419;-58
2023/08/16 11:55:58;;;;;;;18.00;17.10;;;28.50;22.60;;;;;;5154588;27;20420;-58
2023/08/16 11:58:25;;;;;;;17.50;16.70;;;28.40;23.00;;;;;;5154530;27;20943;-58
2023/08/16 12:00:51;;;;;;;15.70;14.90;;;28.40;23.00;;;;;;5139774;27;20435;-58
2023/08/16 12:03:17;;;;;;;15.83;14.73;;;28.40;22.80;;;;;;5133593;27;20479;-58
2023/08/16 12:05:47;;;;;;;17.00;16.00;;;28.40;22.80;;;;;;5133713;27;20181;-58
2023/08/16 12:08:18;;;;;;;15.73;14.83;;;28.60;22.60;;;;;;5133454;27;20181;-57
2023/08/16 12:10:51;;;;;;;16.17;15.00;;;28.70;22.30;;;;;;5133563;27;20458;-57
2023/08/16 12:13:17;;;;;;;15.67;14.77;;;28.70;21.70;;;;;;5133572;27;20421;-57
2023/08/16 12:15:42;;;;;;;16.50;15.50;;;28.60;22.30;;;;;;5133570;27;20419;-57
2023/08/16 12:18:08;;;;;;;15.53;14.60;;;28.50;22.60;;;;;;5116110;27;20251;-58
2023/08/16 12:20:35;;;;;;;16.13;15.33;;;28.50;22.60;;;;;;5116297;27;20701;-57
2023/08/16 12:23:02;;;;;;;15.90;14.87;;;28.40;22.50;;;;;;5133367;27;20173;-58
2023/08/16 12:25:28;;;;;;;16.60;15.40;;;28.30;22.50;;;;;;5133249;27;20900;-57
2023/08/16 12:27:54;;;;;;;16.70;15.90;;;28.40;21.90;;;;;;5133081;27;20505;-57
2023/08/16 12:30:19;;;;;;;15.90;15.10;;;28.40;22.40;;;;;;5133029;27;20278;-59
2023/08/16 12:32:45;;;;;;;15.40;14.70;;;28.40;22.30;;;;;;5134501;27;20628;-59
2023/08/16 12:35:10;;;;;;;15.50;14.60;;;28.40;22.50;;;;;;5132994;27;20166;-58